sensor_id;sensor_type;location;lat;lon;timestamp;pressure;altitude;pressure_sealevel;temperature;humidity
79705;BME280;69940;53.120;8.764;2024-01-30T00:01:43;102824.00;;;7.33;76.99
79705;BME280;69940;53.120;8.764;2024-01-30T00:04:14;102824.00;;;7.30;76.93
79705;BME280;69940;53.120;8.764;2024-01-30T00:06:43;102824.00;;;7.28;77.03
79705;BME280;69940;53.120;8.764;2024-01-30T00:09:14;102825.00;;;7.31;76.67
79705;BME280;69940;53.120;8.764;2024-01-30T00:11:43;102825.00;;;7.36;76.36
79705;BME280;69940;53.120;8.764;2024-01-30T00:14:14;102824.00;;;7.42;76.15
79705;BME280;69940;53.120;8.764;2024-01-30T00:16:43;102822.00;;;7.49;75.84
79705;BME280;69940;53.120;8.764;2024-01-30T00:19:16;102820.00;;;7.56;75.50
79705;BME280;69940;53.120;8.764;2024-01-30T00:21:43;102818.00;;;7.63;75.23
79705;BME280;69940;53.120;8.764;2024-01-30T00:24:14;102817.00;;;7.71;74.99
79705;BME280;69940;53.120;8.764;2024-01-30T00:26:43;102815.00;;;7.77;74.79
79705;BME280;69940;53.120;8.764;2024-01-30T00:29:20;102814.00;;;7.82;74.66
79705;BME280;69940;53.120;8.764;2024-01-30T00:31:43;102812.00;;;7.86;74.51
79705;BME280;69940;53.120;8.764;2024-01-30T00:34:16;102812.00;;;7.91;74.38
79705;BME280;69940;53.120;8.764;2024-01-30T00:36:43;102811.00;;;7.95;74.22
79705;BME280;69940;53.120;8.764;2024-01-30T00:39:17;102811.00;;;7.99;74.08
79705;BME280;69940;53.120;8.764;2024-01-30T00:41:42;102811.00;;;8.03;73.92
79705;BME280;69940;53.120;8.764;2024-01-30T00:44:16;102811.00;;;8.06;73.82
79705;BME280;69940;53.120;8.764;2024-01-30T00:46:43;102811.00;;;8.09;73.70
79705;BME280;69940;53.120;8.764;2024-01-30T00:49:16;102811.00;;;8.12;73.63
79705;BME280;69940;53.120;8.764;2024-01-30T00:51:43;102810.00;;;8.13;73.64
79705;BME280;69940;53.120;8.764;2024-01-30T00:54:16;102807.00;;;8.14;73.60
79705;BME280;69940;53.120;8.764;2024-01-30T00:56:43;102806.00;;;8.16;73.50
79705;BME280;69940;53.120;8.764;2024-01-30T00:59:16;102802.00;;;8.16;73.56
79705;BME280;69940;53.120;8.764;2024-01-30T01:01:42;102799.00;;;8.17;73.54
79705;BME280;69940;53.120;8.764;2024-01-30T01:04:16;102796.00;;;8.18;73.47
79705;BME280;69940;53.120;8.764;2024-01-30T01:06:44;102794.00;;;8.18;73.53
79705;BME280;69940;53.120;8.764;2024-01-30T01:09:16;102793.00;;;8.18;73.55
79705;BME280;69940;53.120;8.764;2024-01-30T01:11:42;102792.00;;;8.19;73.53
79705;BME280;69940;53.120;8.764;2024-01-30T01:14:16;102789.00;;;8.20;73.53
79705;BME280;69940;53.120;8.764;2024-01-30T01:16:43;102788.00;;;8.22;73.50
79705;BME280;69940;53.120;8.764;2024-01-30T01:19:16;102787.00;;;8.23;73.44
79705;BME280;69940;53.120;8.764;2024-01-30T01:21:42;102784.00;;;8.25;73.48
79705;BME280;69940;53.120;8.764;2024-01-30T01:24:16;102783.00;;;8.25;73.56
79705;BME280;69940;53.120;8.764;2024-01-30T01:26:43;102781.00;;;8.25;73.65
79705;BME280;69940;53.120;8.764;2024-01-30T01:29:17;102779.00;;;8.25;73.66
79705;BME280;69940;53.120;8.764;2024-01-30T01:31:47;102776.00;;;8.26;73.59
79705;BME280;69940;53.120;8.764;2024-01-30T01:34:16;102774.00;;;8.27;73.49
79705;BME280;69940;53.120;8.764;2024-01-30T01:36:43;102773.00;;;8.28;73.56
79705;BME280;69940;53.120;8.764;2024-01-30T01:39:16;102770.00;;;8.29;73.51
79705;BME280;69940;53.120;8.764;2024-01-30T01:41:43;102767.00;;;8.29;73.56
79705;BME280;69940;53.120;8.764;2024-01-30T01:44:17;102764.00;;;8.29;73.56
79705;BME280;69940;53.120;8.764;2024-01-30T01:46:44;102761.00;;;8.28;73.66
79705;BME280;69940;53.120;8.764;2024-01-30T01:49:16;102760.00;;;8.27;73.74
79705;BME280;69940;53.120;8.764;2024-01-30T01:51:45;102760.00;;;8.26;73.78
79705;BME280;69940;53.120;8.764;2024-01-30T01:54:17;102760.00;;;8.26;73.65
79705;BME280;69940;53.120;8.764;2024-01-30T01:56:43;102760.00;;;8.25;73.61
79705;BME280;69940;53.120;8.764;2024-01-30T01:59:20;102759.00;;;8.24;73.71
79705;BME280;69940;53.120;8.764;2024-01-30T02:01:44;102759.00;;;8.23;73.74
79705;BME280;69940;53.120;8.764;2024-01-30T02:04:16;102759.00;;;8.21;73.78
79705;BME280;69940;53.120;8.764;2024-01-30T02:06:43;102758.00;;;8.20;73.87
79705;BME280;69940;53.120;8.764;2024-01-30T02:09:16;102757.00;;;8.19;73.96
79705;BME280;69940;53.120;8.764;2024-01-30T02:11:43;102756.00;;;8.16;74.09
79705;BME280;69940;53.120;8.764;2024-01-30T02:14:16;102756.00;;;8.14;74.16
79705;BME280;69940;53.120;8.764;2024-01-30T02:16:43;102755.00;;;8.12;74.30
79705;BME280;69940;53.120;8.764;2024-01-30T02:19:16;102753.00;;;8.09;74.48
79705;BME280;69940;53.120;8.764;2024-01-30T02:21:44;102751.00;;;8.07;74.58
79705;BME280;69940;53.120;8.764;2024-01-30T02:24:16;102749.00;;;8.05;74.63
79705;BME280;69940;53.120;8.764;2024-01-30T02:26:43;102746.00;;;8.03;74.76
79705;BME280;69940;53.120;8.764;2024-01-30T02:29:17;102743.00;;;8.02;74.81
79705;BME280;69940;53.120;8.764;2024-01-30T02:31:43;102739.00;;;8.01;74.87
79705;BME280;69940;53.120;8.764;2024-01-30T02:34:16;102734.00;;;8.01;74.94
79705;BME280;69940;53.120;8.764;2024-01-30T02:36:43;102731.00;;;7.99;75.14
79705;BME280;69940;53.120;8.764;2024-01-30T02:39:16;102727.00;;;7.98;75.26
79705;BME280;69940;53.120;8.764;2024-01-30T02:41:43;102725.00;;;7.98;75.39
79705;BME280;69940;53.120;8.764;2024-01-30T02:44:16;102722.00;;;7.98;75.33
79705;BME280;69940;53.120;8.764;2024-01-30T02:46:43;102719.00;;;7.98;75.28
79705;BME280;69940;53.120;8.764;2024-01-30T02:49:16;102717.00;;;7.98;75.26
79705;BME280;69940;53.120;8.764;2024-01-30T02:51:42;102716.00;;;7.98;75.46
79705;BME280;69940;53.120;8.764;2024-01-30T02:54:16;102714.00;;;7.97;75.54
79705;BME280;69940;53.120;8.764;2024-01-30T02:56:42;102712.00;;;7.97;75.63
79705;BME280;69940;53.120;8.764;2024-01-30T02:59:17;102709.00;;;7.98;75.70
79705;BME280;69940;53.120;8.764;2024-01-30T03:01:43;102707.00;;;7.99;75.64
79705;BME280;69940;53.120;8.764;2024-01-30T03:04:16;102705.00;;;8.00;75.67
79705;BME280;69940;53.120;8.764;2024-01-30T03:06:46;102704.00;;;8.01;75.75
79705;BME280;69940;53.120;8.764;2024-01-30T03:09:19;102702.00;;;8.01;75.82
79705;BME280;69940;53.120;8.764;2024-01-30T03:11:43;102701.00;;;8.01;75.89
79705;BME280;69940;53.120;8.764;2024-01-30T03:14:17;102702.00;;;8.01;75.98
79705;BME280;69940;53.120;8.764;2024-01-30T03:16:42;102700.00;;;8.00;75.99
79705;BME280;69940;53.120;8.764;2024-01-30T03:19:16;102697.00;;;7.99;75.95
79705;BME280;69940;53.120;8.764;2024-01-30T03:21:43;102694.00;;;7.98;76.10
79705;BME280;69940;53.120;8.764;2024-01-30T03:24:16;102692.00;;;7.97;76.15
79705;BME280;69940;53.120;8.764;2024-01-30T03:26:43;102690.00;;;7.96;76.13
79705;BME280;69940;53.120;8.764;2024-01-30T03:29:16;102689.00;;;7.94;76.22
79705;BME280;69940;53.120;8.764;2024-01-30T03:31:43;102687.00;;;7.93;76.26
79705;BME280;69940;53.120;8.764;2024-01-30T03:34:17;102686.00;;;7.92;76.30
79705;BME280;69940;53.120;8.764;2024-01-30T03:36:43;102686.00;;;7.91;76.39
79705;BME280;69940;53.120;8.764;2024-01-30T03:39:17;102685.00;;;7.91;76.47
79705;BME280;69940;53.120;8.764;2024-01-30T03:41:43;102685.00;;;7.92;76.44
79705;BME280;69940;53.120;8.764;2024-01-30T03:44:17;102682.00;;;7.92;76.44
79705;BME280;69940;53.120;8.764;2024-01-30T03:46:43;102682.00;;;7.92;76.49
79705;BME280;69940;53.120;8.764;2024-01-30T03:49:16;102681.00;;;7.92;76.55
79705;BME280;69940;53.120;8.764;2024-01-30T03:51:43;102678.00;;;7.92;76.54
79705;BME280;69940;53.120;8.764;2024-01-30T03:54:17;102676.00;;;7.93;76.65
79705;BME280;69940;53.120;8.764;2024-01-30T03:56:43;102674.00;;;7.92;76.78
79705;BME280;69940;53.120;8.764;2024-01-30T03:59:18;102673.00;;;7.92;76.78
79705;BME280;69940;53.120;8.764;2024-01-30T04:01:43;102672.00;;;7.92;76.86
79705;BME280;69940;53.120;8.764;2024-01-30T04:04:16;102672.00;;;7.92;76.89
79705;BME280;69940;53.120;8.764;2024-01-30T04:06:44;102671.00;;;7.92;76.94
79705;BME280;69940;53.120;8.764;2024-01-30T04:09:16;102670.00;;;7.92;76.96
79705;BME280;69940;53.120;8.764;2024-01-30T04:11:42;102670.00;;;7.93;76.90
79705;BME280;69940;53.120;8.764;2024-01-30T04:14:16;102669.00;;;7.95;76.89
79705;BME280;69940;53.120;8.764;2024-01-30T04:16:43;102669.00;;;7.97;76.86
79705;BME280;69940;53.120;8.764;2024-01-30T04:19:16;102668.00;;;8.00;76.84
79705;BME280;69940;53.120;8.764;2024-01-30T04:21:43;102668.00;;;8.02;76.84
79705;BME280;69940;53.120;8.764;2024-01-30T04:24:19;102667.00;;;8.03;76.91
79705;BME280;69940;53.120;8.764;2024-01-30T04:26:43;102665.00;;;8.03;76.90
79705;BME280;69940;53.120;8.764;2024-01-30T04:29:16;102664.00;;;8.04;76.95
79705;BME280;69940;53.120;8.764;2024-01-30T04:31:43;102664.00;;;8.04;77.00
79705;BME280;69940;53.120;8.764;2024-01-30T04:34:16;102663.00;;;8.04;77.00
79705;BME280;69940;53.120;8.764;2024-01-30T04:36:44;102662.00;;;8.03;77.10
79705;BME280;69940;53.120;8.764;2024-01-30T04:39:16;102660.00;;;8.02;77.14
79705;BME280;69940;53.120;8.764;2024-01-30T04:41:43;102660.00;;;8.01;77.17
79705;BME280;69940;53.120;8.764;2024-01-30T04:44:16;102658.00;;;8.01;77.19
79705;BME280;69940;53.120;8.764;2024-01-30T04:46:43;102656.00;;;8.00;77.16
79705;BME280;69940;53.120;8.764;2024-01-30T04:49:17;102653.00;;;8.00;77.21
79705;BME280;69940;53.120;8.764;2024-01-30T04:51:42;102652.00;;;7.99;77.24
79705;BME280;69940;53.120;8.764;2024-01-30T04:54:17;102650.00;;;7.98;77.33
79705;BME280;69940;53.120;8.764;2024-01-30T04:56:42;102650.00;;;7.98;77.36
79705;BME280;69940;53.120;8.764;2024-01-30T04:59:16;102648.00;;;7.97;77.39
79705;BME280;69940;53.120;8.764;2024-01-30T05:01:43;102647.00;;;7.98;77.34
79705;BME280;69940;53.120;8.764;2024-01-30T05:04:17;102646.00;;;7.98;77.42
79705;BME280;69940;53.120;8.764;2024-01-30T05:06:42;102645.00;;;7.99;77.37
79705;BME280;69940;53.120;8.764;2024-01-30T05:09:17;102643.00;;;7.99;77.33
79705;BME280;69940;53.120;8.764;2024-01-30T05:11:42;102642.00;;;8.00;77.29
79705;BME280;69940;53.120;8.764;2024-01-30T05:14:17;102641.00;;;7.99;77.42
79705;BME280;69940;53.120;8.764;2024-01-30T05:16:48;102639.00;;;7.98;77.47
79705;BME280;69940;53.120;8.764;2024-01-30T05:19:15;102639.00;;;7.96;77.61
79705;BME280;69940;53.120;8.764;2024-01-30T05:21:42;102638.00;;;7.95;77.72
79705;BME280;69940;53.120;8.764;2024-01-30T05:24:12;102637.00;;;7.94;77.78
79705;BME280;69940;53.120;8.764;2024-01-30T05:26:42;102637.00;;;7.93;77.78
79705;BME280;69940;53.120;8.764;2024-01-30T05:29:13;102636.00;;;7.93;77.73
79705;BME280;69940;53.120;8.764;2024-01-30T05:31:42;102636.00;;;7.92;77.71
79705;BME280;69940;53.120;8.764;2024-01-30T05:34:12;102634.00;;;7.92;77.80
79705;BME280;69940;53.120;8.764;2024-01-30T05:36:42;102633.00;;;7.92;77.71
79705;BME280;69940;53.120;8.764;2024-01-30T05:39:12;102632.00;;;7.92;77.85
79705;BME280;69940;53.120;8.764;2024-01-30T05:41:42;102630.00;;;7.91;77.88
79705;BME280;69940;53.120;8.764;2024-01-30T05:44:12;102629.00;;;7.91;77.95
79705;BME280;69940;53.120;8.764;2024-01-30T05:46:42;102629.00;;;7.91;77.95
79705;BME280;69940;53.120;8.764;2024-01-30T05:49:12;102630.00;;;7.92;77.93
79705;BME280;69940;53.120;8.764;2024-01-30T05:51:42;102630.00;;;7.92;77.91
79705;BME280;69940;53.120;8.764;2024-01-30T05:54:13;102629.00;;;7.93;77.98
79705;BME280;69940;53.120;8.764;2024-01-30T05:56:42;102628.00;;;7.93;78.01
79705;BME280;69940;53.120;8.764;2024-01-30T05:59:12;102628.00;;;7.93;78.07
79705;BME280;69940;53.120;8.764;2024-01-30T06:01:45;102628.00;;;7.93;78.16
79705;BME280;69940;53.120;8.764;2024-01-30T06:04:13;102629.00;;;7.93;78.17
79705;BME280;69940;53.120;8.764;2024-01-30T06:06:42;102631.00;;;7.94;78.15
79705;BME280;69940;53.120;8.764;2024-01-30T06:09:13;102632.00;;;7.95;78.09
79705;BME280;69940;53.120;8.764;2024-01-30T06:11:42;102634.00;;;7.97;78.07
79705;BME280;69940;53.120;8.764;2024-01-30T06:14:13;102635.00;;;7.98;78.06
79705;BME280;69940;53.120;8.764;2024-01-30T06:16:43;102635.00;;;7.99;78.05
79705;BME280;69940;53.120;8.764;2024-01-30T06:19:13;102635.00;;;8.00;78.05
79705;BME280;69940;53.120;8.764;2024-01-30T06:21:42;102636.00;;;8.00;78.09
79705;BME280;69940;53.120;8.764;2024-01-30T06:24:13;102635.00;;;8.00;78.12
79705;BME280;69940;53.120;8.764;2024-01-30T06:26:42;102634.00;;;8.01;78.07
79705;BME280;69940;53.120;8.764;2024-01-30T06:29:13;102632.00;;;8.03;78.06
79705;BME280;69940;53.120;8.764;2024-01-30T06:31:42;102631.00;;;8.04;78.04
79705;BME280;69940;53.120;8.764;2024-01-30T06:34:13;102630.00;;;8.06;77.96
79705;BME280;69940;53.120;8.764;2024-01-30T06:36:43;102629.00;;;8.07;78.10
79705;BME280;69940;53.120;8.764;2024-01-30T06:39:12;102628.00;;;8.07;78.08
79705;BME280;69940;53.120;8.764;2024-01-30T06:41:42;102626.00;;;8.08;78.12
79705;BME280;69940;53.120;8.764;2024-01-30T06:44:13;102624.00;;;8.09;78.13
79705;BME280;69940;53.120;8.764;2024-01-30T06:46:42;102623.00;;;8.10;78.12
79705;BME280;69940;53.120;8.764;2024-01-30T06:49:12;102622.00;;;8.11;78.09
79705;BME280;69940;53.120;8.764;2024-01-30T06:51:43;102621.00;;;8.12;77.97
79705;BME280;69940;53.120;8.764;2024-01-30T06:54:13;102621.00;;;8.14;77.95
79705;BME280;69940;53.120;8.764;2024-01-30T06:56:43;102621.00;;;8.15;77.86
79705;BME280;69940;53.120;8.764;2024-01-30T06:59:13;102622.00;;;8.16;77.85
79705;BME280;69940;53.120;8.764;2024-01-30T07:01:42;102622.00;;;8.17;77.82
79705;BME280;69940;53.120;8.764;2024-01-30T07:04:16;102621.00;;;8.18;77.76
79705;BME280;69940;53.120;8.764;2024-01-30T07:06:45;102618.00;;;8.19;77.78
79705;BME280;69940;53.120;8.764;2024-01-30T07:09:15;102618.00;;;8.19;77.76
79705;BME280;69940;53.120;8.764;2024-01-30T07:11:42;102617.00;;;8.20;77.81
79705;BME280;69940;53.120;8.764;2024-01-30T07:14:12;102617.00;;;8.19;77.85
79705;BME280;69940;53.120;8.764;2024-01-30T07:16:42;102617.00;;;8.19;77.97
79705;BME280;69940;53.120;8.764;2024-01-30T07:19:12;102617.00;;;8.18;77.92
79705;BME280;69940;53.120;8.764;2024-01-30T07:21:42;102616.00;;;8.19;77.91
79705;BME280;69940;53.120;8.764;2024-01-30T07:24:13;102615.00;;;8.19;77.86
79705;BME280;69940;53.120;8.764;2024-01-30T07:26:41;102615.00;;;8.19;77.86
79705;BME280;69940;53.120;8.764;2024-01-30T07:29:13;102615.00;;;8.20;77.80
79705;BME280;69940;53.120;8.764;2024-01-30T07:31:42;102614.00;;;8.20;77.75
79705;BME280;69940;53.120;8.764;2024-01-30T07:34:12;102613.00;;;8.19;77.81
79705;BME280;69940;53.120;8.764;2024-01-30T07:36:42;102611.00;;;8.19;77.81
79705;BME280;69940;53.120;8.764;2024-01-30T07:39:12;102607.00;;;8.18;77.75
79705;BME280;69940;53.120;8.764;2024-01-30T07:41:42;102603.00;;;8.17;77.96
79705;BME280;69940;53.120;8.764;2024-01-30T07:44:12;102600.00;;;8.16;78.00
79705;BME280;69940;53.120;8.764;2024-01-30T07:46:42;102597.00;;;8.16;77.99
79705;BME280;69940;53.120;8.764;2024-01-30T07:49:12;102594.00;;;8.16;77.93
79705;BME280;69940;53.120;8.764;2024-01-30T07:51:42;102593.00;;;8.18;77.85
79705;BME280;69940;53.120;8.764;2024-01-30T07:54:12;102592.00;;;8.19;77.88
79705;BME280;69940;53.120;8.764;2024-01-30T07:56:42;102590.00;;;8.21;77.78
79705;BME280;69940;53.120;8.764;2024-01-30T07:59:13;102590.00;;;8.23;77.83
79705;BME280;69940;53.120;8.764;2024-01-30T08:01:42;102590.00;;;8.25;77.75
79705;BME280;69940;53.120;8.764;2024-01-30T08:04:12;102589.00;;;8.28;77.76
79705;BME280;69940;53.120;8.764;2024-01-30T08:06:42;102591.00;;;8.31;77.75
79705;BME280;69940;53.120;8.764;2024-01-30T08:09:13;102592.00;;;8.33;77.67
79705;BME280;69940;53.120;8.764;2024-01-30T08:11:43;102595.00;;;8.36;77.59
79705;BME280;69940;53.120;8.764;2024-01-30T08:14:15;102598.00;;;8.39;77.49
79705;BME280;69940;53.120;8.764;2024-01-30T08:16:42;102599.00;;;8.41;77.41
79705;BME280;69940;53.120;8.764;2024-01-30T08:19:12;102599.00;;;8.42;77.49
79705;BME280;69940;53.120;8.764;2024-01-30T08:21:42;102600.00;;;8.44;77.49
79705;BME280;69940;53.120;8.764;2024-01-30T08:24:12;102598.00;;;8.45;77.46
79705;BME280;69940;53.120;8.764;2024-01-30T08:26:43;102596.00;;;8.47;77.39
79705;BME280;69940;53.120;8.764;2024-01-30T08:29:12;102596.00;;;8.49;77.38
79705;BME280;69940;53.120;8.764;2024-01-30T08:31:42;102597.00;;;8.51;77.36
79705;BME280;69940;53.120;8.764;2024-01-30T08:34:12;102596.00;;;8.54;77.26
79705;BME280;69940;53.120;8.764;2024-01-30T08:36:42;102598.00;;;8.56;77.29
79705;BME280;69940;53.120;8.764;2024-01-30T08:39:12;102599.00;;;8.59;77.24
79705;BME280;69940;53.120;8.764;2024-01-30T08:41:42;102600.00;;;8.62;77.23
79705;BME280;69940;53.120;8.764;2024-01-30T08:44:12;102599.00;;;8.64;77.19
79705;BME280;69940;53.120;8.764;2024-01-30T08:46:44;102598.00;;;8.67;77.10
79705;BME280;69940;53.120;8.764;2024-01-30T08:49:17;102596.00;;;8.70;77.13
79705;BME280;69940;53.120;8.764;2024-01-30T08:51:43;102595.00;;;8.73;77.08
79705;BME280;69940;53.120;8.764;2024-01-30T08:54:12;102593.00;;;8.76;76.96
79705;BME280;69940;53.120;8.764;2024-01-30T08:56:43;102591.00;;;8.79;76.99
79705;BME280;69940;53.120;8.764;2024-01-30T08:59:12;102589.00;;;8.81;77.01
79705;BME280;69940;53.120;8.764;2024-01-30T09:01:42;102586.00;;;8.84;76.98
79705;BME280;69940;53.120;8.764;2024-01-30T09:04:13;102584.00;;;8.87;76.97
79705;BME280;69940;53.120;8.764;2024-01-30T09:06:42;102583.00;;;8.90;76.93
79705;BME280;69940;53.120;8.764;2024-01-30T09:09:12;102583.00;;;8.93;76.94
79705;BME280;69940;53.120;8.764;2024-01-30T09:11:43;102582.00;;;8.96;76.89
79705;BME280;69940;53.120;8.764;2024-01-30T09:14:12;102582.00;;;8.99;76.87
79705;BME280;69940;53.120;8.764;2024-01-30T09:16:42;102583.00;;;9.03;76.75
79705;BME280;69940;53.120;8.764;2024-01-30T09:19:12;102584.00;;;9.07;76.81
79705;BME280;69940;53.120;8.764;2024-01-30T09:21:42;102586.00;;;9.10;76.66
79705;BME280;69940;53.120;8.764;2024-01-30T09:24:12;102587.00;;;9.14;76.67
79705;BME280;69940;53.120;8.764;2024-01-30T09:26:42;102588.00;;;9.16;76.73
79705;BME280;69940;53.120;8.764;2024-01-30T09:29:12;102589.00;;;9.18;76.73
79705;BME280;69940;53.120;8.764;2024-01-30T09:31:43;102590.00;;;9.20;76.79
79705;BME280;69940;53.120;8.764;2024-01-30T09:34:13;102590.00;;;9.23;76.79
79705;BME280;69940;53.120;8.764;2024-01-30T09:36:43;102589.00;;;9.26;76.79
79705;BME280;69940;53.120;8.764;2024-01-30T09:39:12;102589.00;;;9.30;76.76
79705;BME280;69940;53.120;8.764;2024-01-30T09:41:49;102587.00;;;9.33;76.65
79705;BME280;69940;53.120;8.764;2024-01-30T09:44:13;102586.00;;;9.36;76.74
79705;BME280;69940;53.120;8.764;2024-01-30T09:46:42;102583.00;;;9.40;76.71
79705;BME280;69940;53.120;8.764;2024-01-30T09:49:12;102583.00;;;9.45;76.60
79705;BME280;69940;53.120;8.764;2024-01-30T09:51:42;102585.00;;;9.50;76.57
79705;BME280;69940;53.120;8.764;2024-01-30T09:54:14;102587.00;;;9.55;76.55
79705;BME280;69940;53.120;8.764;2024-01-30T09:56:42;102587.00;;;9.59;76.48
79705;BME280;69940;53.120;8.764;2024-01-30T09:59:13;102586.00;;;9.62;76.52
79705;BME280;69940;53.120;8.764;2024-01-30T10:01:42;102586.00;;;9.66;76.53
79705;BME280;69940;53.120;8.764;2024-01-30T10:04:13;102586.00;;;9.69;76.51
79705;BME280;69940;53.120;8.764;2024-01-30T10:06:42;102587.00;;;9.73;76.51
79705;BME280;69940;53.120;8.764;2024-01-30T10:09:12;102589.00;;;9.77;76.52
79705;BME280;69940;53.120;8.764;2024-01-30T10:11:43;102589.00;;;9.80;76.42
79705;BME280;69940;53.120;8.764;2024-01-30T10:14:12;102590.00;;;9.82;76.57
79705;BME280;69940;53.120;8.764;2024-01-30T10:16:42;102588.00;;;9.85;76.70
79705;BME280;69940;53.120;8.764;2024-01-30T10:19:13;102587.00;;;9.87;76.66
79705;BME280;69940;53.120;8.764;2024-01-30T10:21:42;102587.00;;;9.89;76.70
79705;BME280;69940;53.120;8.764;2024-01-30T10:24:16;102589.00;;;9.91;76.73
79705;BME280;69940;53.120;8.764;2024-01-30T10:26:45;102589.00;;;9.93;76.76
79705;BME280;69940;53.120;8.764;2024-01-30T10:29:13;102591.00;;;9.95;76.83
79705;BME280;69940;53.120;8.764;2024-01-30T10:31:43;102592.00;;;9.97;76.82
79705;BME280;69940;53.120;8.764;2024-01-30T10:34:13;102589.00;;;10.01;76.77
79705;BME280;69940;53.120;8.764;2024-01-30T10:36:46;102586.00;;;10.04;76.71
79705;BME280;69940;53.120;8.764;2024-01-30T10:39:16;102584.00;;;10.07;76.76
79705;BME280;69940;53.120;8.764;2024-01-30T10:41:47;102584.00;;;10.11;76.70
79705;BME280;69940;53.120;8.764;2024-01-30T10:44:17;102582.00;;;10.15;76.65
79705;BME280;69940;53.120;8.764;2024-01-30T10:46:44;102582.00;;;10.20;76.64
79705;BME280;69940;53.120;8.764;2024-01-30T10:49:14;102582.00;;;10.24;76.55
79705;BME280;69940;53.120;8.764;2024-01-30T10:51:43;102579.00;;;10.29;76.52
79705;BME280;69940;53.120;8.764;2024-01-30T10:54:13;102577.00;;;10.34;76.43
79705;BME280;69940;53.120;8.764;2024-01-30T10:56:42;102575.00;;;10.38;76.48
79705;BME280;69940;53.120;8.764;2024-01-30T10:59:14;102574.00;;;10.42;76.55
79705;BME280;69940;53.120;8.764;2024-01-30T11:01:42;102573.00;;;10.46;76.55
79705;BME280;69940;53.120;8.764;2024-01-30T11:04:12;102572.00;;;10.50;76.47
79705;BME280;69940;53.120;8.764;2024-01-30T11:06:43;102570.00;;;10.54;76.44
79705;BME280;69940;53.120;8.764;2024-01-30T11:09:17;102565.00;;;10.57;76.43
79705;BME280;69940;53.120;8.764;2024-01-30T11:11:52;102564.00;;;10.61;76.53
79705;BME280;69940;53.120;8.764;2024-01-30T11:14:12;102567.00;;;10.64;76.54
79705;BME280;69940;53.120;8.764;2024-01-30T11:16:43;102568.00;;;10.67;76.58
79705;BME280;69940;53.120;8.764;2024-01-30T11:19:13;102569.00;;;10.70;76.56
79705;BME280;69940;53.120;8.764;2024-01-30T11:21:43;102568.00;;;10.74;76.53
79705;BME280;69940;53.120;8.764;2024-01-30T11:24:14;102567.00;;;10.78;76.46
79705;BME280;69940;53.120;8.764;2024-01-30T11:26:42;102568.00;;;10.83;76.44
79705;BME280;69940;53.120;8.764;2024-01-30T11:29:13;102569.00;;;10.87;76.50
79705;BME280;69940;53.120;8.764;2024-01-30T11:31:52;102569.00;;;10.91;76.45
79705;BME280;69940;53.120;8.764;2024-01-30T11:34:14;102568.00;;;10.94;76.43
79705;BME280;69940;53.120;8.764;2024-01-30T11:36:43;102567.00;;;10.99;76.38
79705;BME280;69940;53.120;8.764;2024-01-30T11:39:13;102566.00;;;11.03;76.25
79705;BME280;69940;53.120;8.764;2024-01-30T11:41:45;102564.00;;;11.06;76.20
79705;BME280;69940;53.120;8.764;2024-01-30T11:44:12;102560.00;;;11.10;76.07
79705;BME280;69940;53.120;8.764;2024-01-30T11:46:42;102555.00;;;11.12;76.19
79705;BME280;69940;53.120;8.764;2024-01-30T11:49:12;102553.00;;;11.13;76.31
79705;BME280;69940;53.120;8.764;2024-01-30T11:51:43;102552.00;;;11.13;76.38
79705;BME280;69940;53.120;8.764;2024-01-30T11:54:13;102551.00;;;11.12;76.53
79705;BME280;69940;53.120;8.764;2024-01-30T11:56:42;102551.00;;;11.11;76.65
79705;BME280;69940;53.120;8.764;2024-01-30T11:59:13;102550.00;;;11.11;76.66
79705;BME280;69940;53.120;8.764;2024-01-30T12:01:42;102550.00;;;11.11;76.62
79705;BME280;69940;53.120;8.764;2024-01-30T12:04:13;102551.00;;;11.11;76.76
79705;BME280;69940;53.120;8.764;2024-01-30T12:06:43;102551.00;;;11.12;76.71
79705;BME280;69940;53.120;8.764;2024-01-30T12:09:14;102551.00;;;11.13;76.68
79705;BME280;69940;53.120;8.764;2024-01-30T12:11:46;102551.00;;;11.14;76.71
79705;BME280;69940;53.120;8.764;2024-01-30T12:14:14;102552.00;;;11.15;76.73
79705;BME280;69940;53.120;8.764;2024-01-30T12:16:42;102553.00;;;11.17;76.76
79705;BME280;69940;53.120;8.764;2024-01-30T12:19:21;102554.00;;;11.20;76.64
79705;BME280;69940;53.120;8.764;2024-01-30T12:21:42;102556.00;;;11.23;76.68
79705;BME280;69940;53.120;8.764;2024-01-30T12:24:13;102559.00;;;11.24;76.68
79705;BME280;69940;53.120;8.764;2024-01-30T12:26:42;102561.00;;;11.26;76.71
79705;BME280;69940;53.120;8.764;2024-01-30T12:29:14;102561.00;;;11.27;76.76
79705;BME280;69940;53.120;8.764;2024-01-30T12:31:42;102561.00;;;11.28;76.86
79705;BME280;69940;53.120;8.764;2024-01-30T12:34:18;102561.00;;;11.30;76.87
79705;BME280;69940;53.120;8.764;2024-01-30T12:36:45;102560.00;;;11.32;76.88
79705;BME280;69940;53.120;8.764;2024-01-30T12:39:15;102561.00;;;11.33;77.01
79705;BME280;69940;53.120;8.764;2024-01-30T12:41:43;102560.00;;;11.34;77.14
79705;BME280;69940;53.120;8.764;2024-01-30T12:44:13;102558.00;;;11.35;77.19
79705;BME280;69940;53.120;8.764;2024-01-30T12:46:42;102556.00;;;11.36;77.29
79705;BME280;69940;53.120;8.764;2024-01-30T12:49:12;102554.00;;;11.37;77.36
79705;BME280;69940;53.120;8.764;2024-01-30T12:51:42;102553.00;;;11.37;77.41
79705;BME280;69940;53.120;8.764;2024-01-30T12:54:13;102552.00;;;11.38;77.52
79705;BME280;69940;53.120;8.764;2024-01-30T12:56:43;102551.00;;;11.38;77.62
79705;BME280;69940;53.120;8.764;2024-01-30T12:59:12;102550.00;;;11.38;77.64
79705;BME280;69940;53.120;8.764;2024-01-30T13:01:42;102548.00;;;11.39;77.67
79705;BME280;69940;53.120;8.764;2024-01-30T13:04:12;102547.00;;;11.39;77.84
79705;BME280;69940;53.120;8.764;2024-01-30T13:06:42;102546.00;;;11.40;77.88
79705;BME280;69940;53.120;8.764;2024-01-30T13:09:13;102546.00;;;11.41;78.06
79705;BME280;69940;53.120;8.764;2024-01-30T13:11:42;102546.00;;;11.42;78.09